sensor_id;sensor_type;location;lat;lon;timestamp;temperature;humidity
47805;DHT22;33568;45.286;9.900;2023-08-07T00:01:28;23.70;70.30
47805;DHT22;33568;45.286;9.900;2023-08-07T00:03:55;23.70;70.40
47805;DHT22;33568;45.286;9.900;2023-08-07T00:06:21;23.70;70.70
47805;DHT22;33568;45.286;9.900;2023-08-07T00:09:13;23.70;70.80
47805;DHT22;33568;45.286;9.900;2023-08-07T00:11:39;23.70;72.30
47805;DHT22;33568;45.286;9.900;2023-08-07T00:14:06;23.70;71.10
47805;DHT22;33568;45.286;9.900;2023-08-07T00:16:32;23.60;71.30
47805;DHT22;33568;45.286;9.900;2023-08-07T00:18:59;23.60;71.60
47805;DHT22;33568;45.286;9.900;2023-08-07T00:21:25;23.60;71.70
47805;DHT22;33568;45.286;9.900;2023-08-07T00:23:52;23.50;72.00
47805;DHT22;33568;45.286;9.900;2023-08-07T00:26:18;23.50;72.30
47805;DHT22;33568;45.286;9.900;2023-08-07T00:28:44;23.50;72.40
47805;DHT22;33568;45.286;9.900;2023-08-07T00:31:11;23.50;72.40
47805;DHT22;33568;45.286;9.900;2023-08-07T00:33:40;23.50;72.60
47805;DHT22;33568;45.286;9.900;2023-08-07T00:36:08;23.50;72.80
47805;DHT22;33568;45.286;9.900;2023-08-07T00:38:34;23.50;72.90
47805;DHT22;33568;45.286;9.900;2023-08-07T00:41:01;23.50;73.00
47805;DHT22;33568;45.286;9.900;2023-08-07T00:43:27;23.50;72.90
47805;DHT22;33568;45.286;9.900;2023-08-07T00:45:54;23.50;73.10
47805;DHT22;33568;45.286;9.900;2023-08-07T00:48:21;23.50;73.10
47805;DHT22;33568;45.286;9.900;2023-08-07T00:50:48;23.50;73.30
47805;DHT22;33568;45.286;9.900;2023-08-07T00:53:15;23.40;73.50
47805;DHT22;33568;45.286;9.900;2023-08-07T00:55:42;23.30;73.90
47805;DHT22;33568;45.286;9.900;2023-08-07T00:58:09;23.30;74.10
47805;DHT22;33568;45.286;9.900;2023-08-07T01:00:35;23.30;74.30
47805;DHT22;33568;45.286;9.900;2023-08-07T01:03:05;23.50;74.20
47805;DHT22;33568;45.286;9.900;2023-08-07T01:05:32;23.60;74.00
47805;DHT22;33568;45.286;9.900;2023-08-07T01:07:58;23.60;73.80
47805;DHT22;33568;45.286;9.900;2023-08-07T01:10:50;23.60;73.80
47805;DHT22;33568;45.286;9.900;2023-08-07T01:16:42;23.20;75.40
47805;DHT22;33568;45.286;9.900;2023-08-07T01:19:22;23.10;75.40
47805;DHT22;33568;45.286;9.900;2023-08-07T01:21:49;23.00;75.70
47805;DHT22;33568;45.286;9.900;2023-08-07T01:24:16;23.00;75.50
47805;DHT22;33568;45.286;9.900;2023-08-07T01:26:44;22.90;75.80
47805;DHT22;33568;45.286;9.900;2023-08-07T01:29:27;22.90;76.00
47805;DHT22;33568;45.286;9.900;2023-08-07T01:31:57;22.80;76.70
47805;DHT22;33568;45.286;9.900;2023-08-07T01:34:27;22.70;76.80
47805;DHT22;33568;45.286;9.900;2023-08-07T01:36:54;22.70;76.90
47805;DHT22;33568;45.286;9.900;2023-08-07T01:39:22;22.60;77.30
47805;DHT22;33568;45.286;9.900;2023-08-07T01:41:50;22.50;78.00
47805;DHT22;33568;45.286;9.900;2023-08-07T01:44:17;22.60;78.10
47805;DHT22;33568;45.286;9.900;2023-08-07T01:46:43;22.60;78.10
47805;DHT22;33568;45.286;9.900;2023-08-07T01:49:10;22.60;78.20
47805;DHT22;33568;45.286;9.900;2023-08-07T01:51:37;22.70;78.00
47805;DHT22;33568;45.286;9.900;2023-08-07T01:54:04;22.80;78.10
47805;DHT22;33568;45.286;9.900;2023-08-07T01:56:30;23.00;78.20
47805;DHT22;33568;45.286;9.900;2023-08-07T01:58:57;23.00;77.80
47805;DHT22;33568;45.286;9.900;2023-08-07T02:01:23;23.10;77.70
47805;DHT22;33568;45.286;9.900;2023-08-07T02:03:50;23.10;77.50
47805;DHT22;33568;45.286;9.900;2023-08-07T02:06:16;23.00;77.50
47805;DHT22;33568;45.286;9.900;2023-08-07T02:08:46;22.90;77.50
47805;DHT22;33568;45.286;9.900;2023-08-07T02:11:13;22.80;77.90
47805;DHT22;33568;45.286;9.900;2023-08-07T02:13:39;22.80;78.10
47805;DHT22;33568;45.286;9.900;2023-08-07T02:16:06;22.70;78.40
47805;DHT22;33568;45.286;9.900;2023-08-07T02:18:33;22.60;78.70
47805;DHT22;33568;45.286;9.900;2023-08-07T02:20:59;22.40;79.00
47805;DHT22;33568;45.286;9.900;2023-08-07T02:23:26;22.40;79.50
47805;DHT22;33568;45.286;9.900;2023-08-07T02:25:54;22.30;79.90
47805;DHT22;33568;45.286;9.900;2023-08-07T02:28:20;22.20;80.30
47805;DHT22;33568;45.286;9.900;2023-08-07T02:30:47;22.10;80.70
47805;DHT22;33568;45.286;9.900;2023-08-07T02:33:15;22.00;81.00
47805;DHT22;33568;45.286;9.900;2023-08-07T02:35:44;22.00;81.30
47805;DHT22;33568;45.286;9.900;2023-08-07T02:38:11;21.90;82.00
47805;DHT22;33568;45.286;9.900;2023-08-07T02:40:37;21.90;82.10
47805;DHT22;33568;45.286;9.900;2023-08-07T02:43:04;22.10;82.20
47805;DHT22;33568;45.286;9.900;2023-08-07T02:45:30;22.10;81.90
47805;DHT22;33568;45.286;9.900;2023-08-07T02:47:58;22.20;82.00
47805;DHT22;33568;45.286;9.900;2023-08-07T02:50:25;22.20;81.70
47805;DHT22;33568;45.286;9.900;2023-08-07T02:52:53;22.20;81.70
47805;DHT22;33568;45.286;9.900;2023-08-07T02:55:20;22.10;81.70
47805;DHT22;33568;45.286;9.900;2023-08-07T02:57:46;22.10;82.30
47805;DHT22;33568;45.286;9.900;2023-08-07T03:00:13;22.00;81.90
47805;DHT22;33568;45.286;9.900;2023-08-07T03:02:40;21.80;82.00
47805;DHT22;33568;45.286;9.900;2023-08-07T03:05:08;21.70;83.20
47805;DHT22;33568;45.286;9.900;2023-08-07T03:07:35;21.60;83.30
47805;DHT22;33568;45.286;9.900;2023-08-07T03:10:01;21.50;83.80
47805;DHT22;33568;45.286;9.900;2023-08-07T03:12:28;21.60;84.00
47805;DHT22;33568;45.286;9.900;2023-08-07T03:14:54;21.70;84.50
47805;DHT22;33568;45.286;9.900;2023-08-07T03:17:21;21.80;84.00
47805;DHT22;33568;45.286;9.900;2023-08-07T03:19:47;21.90;83.60
47805;DHT22;33568;45.286;9.900;2023-08-07T03:22:16;22.00;83.30
47805;DHT22;33568;45.286;9.900;2023-08-07T03:24:46;22.00;83.10
47805;DHT22;33568;45.286;9.900;2023-08-07T03:27:14;21.90;83.30
47805;DHT22;33568;45.286;9.900;2023-08-07T03:29:41;21.90;83.50
47805;DHT22;33568;45.286;9.900;2023-08-07T03:32:08;21.80;83.50
47805;DHT22;33568;45.286;9.900;2023-08-07T03:34:37;21.80;83.50
47805;DHT22;33568;45.286;9.900;2023-08-07T03:37:04;21.80;83.70
47805;DHT22;33568;45.286;9.900;2023-08-07T03:39:31;21.80;83.70
47805;DHT22;33568;45.286;9.900;2023-08-07T03:41:58;21.90;83.90
47805;DHT22;33568;45.286;9.900;2023-08-07T03:44:25;21.90;83.60
47805;DHT22;33568;45.286;9.900;2023-08-07T03:46:52;22.00;83.00
47805;DHT22;33568;45.286;9.900;2023-08-07T03:49:23;21.90;83.10
47805;DHT22;33568;45.286;9.900;2023-08-07T03:51:50;21.90;82.90
47805;DHT22;33568;45.286;9.900;2023-08-07T03:54:17;22.00;82.50
47805;DHT22;33568;45.286;9.900;2023-08-07T03:56:43;22.10;82.20
47805;DHT22;33568;45.286;9.900;2023-08-07T03:59:10;22.10;81.90
47805;DHT22;33568;45.286;9.900;2023-08-07T04:01:36;22.10;81.60
47805;DHT22;33568;45.286;9.900;2023-08-07T04:04:03;22.10;81.30
47805;DHT22;33568;45.286;9.900;2023-08-07T04:06:30;22.00;81.00
47805;DHT22;33568;45.286;9.900;2023-08-07T04:08:56;21.90;80.60
47805;DHT22;33568;45.286;9.900;2023-08-07T04:11:23;21.90;80.30
47805;DHT22;33568;45.286;9.900;2023-08-07T04:13:49;21.70;80.40
47805;DHT22;33568;45.286;9.900;2023-08-07T04:16:16;21.70;80.60
47805;DHT22;33568;45.286;9.900;2023-08-07T04:18:43;21.60;80.70
47805;DHT22;33568;45.286;9.900;2023-08-07T04:21:09;21.50;80.90
47805;DHT22;33568;45.286;9.900;2023-08-07T04:23:36;21.40;81.10
47805;DHT22;33568;45.286;9.900;2023-08-07T04:26:03;21.30;81.50
47805;DHT22;33568;45.286;9.900;2023-08-07T04:28:30;21.00;82.10
47805;DHT22;33568;45.286;9.900;2023-08-07T04:30:56;20.70;83.00
47805;DHT22;33568;45.286;9.900;2023-08-07T04:33:22;20.40;83.90
47805;DHT22;33568;45.286;9.900;2023-08-07T04:35:49;20.10;85.00
47805;DHT22;33568;45.286;9.900;2023-08-07T04:38:16;20.00;86.00
47805;DHT22;33568;45.286;9.900;2023-08-07T04:40:46;20.10;86.40
47805;DHT22;33568;45.286;9.900;2023-08-07T04:43:14;20.30;86.30
47805;DHT22;33568;45.286;9.900;2023-08-07T04:46:06;20.40;86.10
47805;DHT22;33568;45.286;9.900;2023-08-07T04:48:32;20.70;86.30
47805;DHT22;33568;45.286;9.900;2023-08-07T04:50:59;20.70;85.30
47805;DHT22;33568;45.286;9.900;2023-08-07T04:53:25;20.60;85.80
47805;DHT22;33568;45.286;9.900;2023-08-07T04:55:52;20.60;86.00
47805;DHT22;33568;45.286;9.900;2023-08-07T04:58:18;20.80;86.00
47805;DHT22;33568;45.286;9.900;2023-08-07T05:00:45;21.00;85.30
47805;DHT22;33568;45.286;9.900;2023-08-07T05:03:11;21.10;85.10
47805;DHT22;33568;45.286;9.900;2023-08-07T05:05:37;20.90;85.00
47805;DHT22;33568;45.286;9.900;2023-08-07T05:08:04;20.90;85.60
47805;DHT22;33568;45.286;9.900;2023-08-07T05:10:30;21.00;85.20
47805;DHT22;33568;45.286;9.900;2023-08-07T05:12:57;20.90;84.90
47805;DHT22;33568;45.286;9.900;2023-08-07T05:15:24;20.60;85.20
47805;DHT22;33568;45.286;9.900;2023-08-07T05:17:52;20.30;85.70
47805;DHT22;33568;45.286;9.900;2023-08-07T05:20:18;20.20;86.50
47805;DHT22;33568;45.286;9.900;2023-08-07T05:22:45;20.10;86.80
47805;DHT22;33568;45.286;9.900;2023-08-07T05:25:11;20.30;87.30
47805;DHT22;33568;45.286;9.900;2023-08-07T05:27:42;20.60;86.40
47805;DHT22;33568;45.286;9.900;2023-08-07T05:30:09;20.90;85.50
47805;DHT22;33568;45.286;9.900;2023-08-07T05:32:36;21.20;85.00
47805;DHT22;33568;45.286;9.900;2023-08-07T05:35:05;21.60;83.90
47805;DHT22;33568;45.286;9.900;2023-08-07T05:37:31;21.90;82.20
47805;DHT22;33568;45.286;9.900;2023-08-07T05:39:58;22.00;81.60
47805;DHT22;33568;45.286;9.900;2023-08-07T05:42:24;22.30;80.80
47805;DHT22;33568;45.286;9.900;2023-08-07T05:44:51;22.60;79.70
47805;DHT22;33568;45.286;9.900;2023-08-07T05:47:18;22.70;78.60
47805;DHT22;33568;45.286;9.900;2023-08-07T05:49:44;22.80;78.20
47805;DHT22;33568;45.286;9.900;2023-08-07T05:52:10;23.00;77.50
47805;DHT22;33568;45.286;9.900;2023-08-07T05:54:37;23.00;76.90
47805;DHT22;33568;45.286;9.900;2023-08-07T05:57:03;23.00;76.30
47805;DHT22;33568;45.286;9.900;2023-08-07T05:59:30;23.00;75.70
47805;DHT22;33568;45.286;9.900;2023-08-07T06:01:56;22.80;75.00
47805;DHT22;33568;45.286;9.900;2023-08-07T06:04:23;22.70;75.70
47805;DHT22;33568;45.286;9.900;2023-08-07T06:06:49;22.70;75.30
47805;DHT22;33568;45.286;9.900;2023-08-07T06:09:16;22.50;74.80
47805;DHT22;33568;45.286;9.900;2023-08-07T06:11:42;22.50;74.70
47805;DHT22;33568;45.286;9.900;2023-08-07T06:14:09;22.40;74.30
47805;DHT22;33568;45.286;9.900;2023-08-07T06:16:35;22.40;74.10
47805;DHT22;33568;45.286;9.900;2023-08-07T06:19:02;22.30;74.00
47805;DHT22;33568;45.286;9.900;2023-08-07T06:21:29;22.30;74.10
47805;DHT22;33568;45.286;9.900;2023-08-07T06:23:55;22.30;74.00
47805;DHT22;33568;45.286;9.900;2023-08-07T06:26:22;22.40;73.80
47805;DHT22;33568;45.286;9.900;2023-08-07T06:28:48;22.40;73.40
47805;DHT22;33568;45.286;9.900;2023-08-07T06:31:15;22.50;73.10
47805;DHT22;33568;45.286;9.900;2023-08-07T06:33:42;22.70;72.70
47805;DHT22;33568;45.286;9.900;2023-08-07T06:36:08;22.80;72.10
47805;DHT22;33568;45.286;9.900;2023-08-07T06:38:35;23.10;71.40
47805;DHT22;33568;45.286;9.900;2023-08-07T06:41:02;23.30;71.30
47805;DHT22;33568;45.286;9.900;2023-08-07T06:43:29;23.50;70.10
47805;DHT22;33568;45.286;9.900;2023-08-07T06:45:56;23.60;69.10
47805;DHT22;33568;45.286;9.900;2023-08-07T06:48:23;23.80;68.50
47805;DHT22;33568;45.286;9.900;2023-08-07T06:50:53;23.90;68.00
47805;DHT22;33568;45.286;9.900;2023-08-07T06:53:19;24.00;67.20
47805;DHT22;33568;45.286;9.900;2023-08-07T06:55:49;24.20;66.80
47805;DHT22;33568;45.286;9.900;2023-08-07T06:58:16;24.30;66.20
47805;DHT22;33568;45.286;9.900;2023-08-07T07:00:43;24.20;64.20
47805;DHT22;33568;45.286;9.900;2023-08-07T07:03:09;24.10;63.10
47805;DHT22;33568;45.286;9.900;2023-08-07T07:05:36;24.10;62.40
47805;DHT22;33568;45.286;9.900;2023-08-07T07:08:03;24.10;61.70
47805;DHT22;33568;45.286;9.900;2023-08-07T07:10:29;24.20;60.60
47805;DHT22;33568;45.286;9.900;2023-08-07T07:12:56;24.30;60.00
47805;DHT22;33568;45.286;9.900;2023-08-07T07:15:22;24.30;59.40
47805;DHT22;33568;45.286;9.900;2023-08-07T07:17:48;24.40;58.80
47805;DHT22;33568;45.286;9.900;2023-08-07T07:20:15;24.50;58.00
47805;DHT22;33568;45.286;9.900;2023-08-07T07:22:41;24.60;57.30
47805;DHT22;33568;45.286;9.900;2023-08-07T07:25:08;24.60;56.70
47805;DHT22;33568;45.286;9.900;2023-08-07T07:27:35;24.80;55.90
47805;DHT22;33568;45.286;9.900;2023-08-07T07:30:01;24.80;55.40
47805;DHT22;33568;45.286;9.900;2023-08-07T07:32:30;24.90;54.90
47805;DHT22;33568;45.286;9.900;2023-08-07T07:34:56;25.00;54.30
47805;DHT22;33568;45.286;9.900;2023-08-07T07:37:22;25.10;53.80
47805;DHT22;33568;45.286;9.900;2023-08-07T07:39:49;25.10;53.50
47805;DHT22;33568;45.286;9.900;2023-08-07T07:42:15;25.10;53.20
47805;DHT22;33568;45.286;9.900;2023-08-07T07:44:42;25.10;52.40
47805;DHT22;33568;45.286;9.900;2023-08-07T07:47:08;25.20;52.40
47805;DHT22;33568;45.286;9.900;2023-08-07T07:49:35;25.30;51.50
47805;DHT22;33568;45.286;9.900;2023-08-07T07:52:01;25.40;51.20
47805;DHT22;33568;45.286;9.900;2023-08-07T07:54:28;25.50;51.20
47805;DHT22;33568;45.286;9.900;2023-08-07T07:56:55;25.70;51.00
47805;DHT22;33568;45.286;9.900;2023-08-07T07:59:21;26.00;50.80
47805;DHT22;33568;45.286;9.900;2023-08-07T08:01:48;26.10;50.60
47805;DHT22;33568;45.286;9.900;2023-08-07T08:04:14;26.30;50.50
47805;DHT22;33568;45.286;9.900;2023-08-07T08:06:41;26.30;50.50
47805;DHT22;33568;45.286;9.900;2023-08-07T08:09:07;26.50;50.40
47805;DHT22;33568;45.286;9.900;2023-08-07T08:11:36;26.60;50.00
47805;DHT22;33568;45.286;9.900;2023-08-07T08:14:02;26.70;50.10
47805;DHT22;33568;45.286;9.900;2023-08-07T08:16:28;26.80;50.20
47805;DHT22;33568;45.286;9.900;2023-08-07T08:18:55;27.10;50.80
47805;DHT22;33568;45.286;9.900;2023-08-07T08:21:21;27.20;49.80
47805;DHT22;33568;45.286;9.900;2023-08-07T08:23:47;27.40;49.80
47805;DHT22;33568;45.286;9.900;2023-08-07T08:26:14;27.50;49.10
47805;DHT22;33568;45.286;9.900;2023-08-07T08:28:40;27.60;49.00
47805;DHT22;33568;45.286;9.900;2023-08-07T08:31:06;27.60;48.50
47805;DHT22;33568;45.286;9.900;2023-08-07T08:33:33;27.70;48.90
47805;DHT22;33568;45.286;9.900;2023-08-07T08:35:59;27.80;49.00
47805;DHT22;33568;45.286;9.900;2023-08-07T08:38:25;28.00;48.90
47805;DHT22;33568;45.286;9.900;2023-08-07T08:41:01;28.20;49.70
47805;DHT22;33568;45.286;9.900;2023-08-07T08:43:30;28.30;48.50
47805;DHT22;33568;45.286;9.900;2023-08-07T08:46:00;28.50;47.90
47805;DHT22;33568;45.286;9.900;2023-08-07T08:48:27;28.40;48.00
47805;DHT22;33568;45.286;9.900;2023-08-07T08:50:57;28.50;47.00
47805;DHT22;33568;45.286;9.900;2023-08-07T08:53:25;28.40;46.40
47805;DHT22;33568;45.286;9.900;2023-08-07T08:55:52;28.50;46.50
47805;DHT22;33568;45.286;9.900;2023-08-07T08:58:20;28.60;46.30
47805;DHT22;33568;45.286;9.900;2023-08-07T09:00:47;28.50;44.20
47805;DHT22;33568;45.286;9.900;2023-08-07T09:03:14;28.40;43.60
47805;DHT22;33568;45.286;9.900;2023-08-07T09:05:41;28.40;42.60
47805;DHT22;33568;45.286;9.900;2023-08-07T09:08:09;28.50;42.40
47805;DHT22;33568;45.286;9.900;2023-08-07T09:10:37;28.60;41.90
47805;DHT22;33568;45.286;9.900;2023-08-07T09:13:05;28.60;41.30
47805;DHT22;33568;45.286;9.900;2023-08-07T09:15:36;28.50;40.80
47805;DHT22;33568;45.286;9.900;2023-08-07T09:18:06;28.60;40.80
47805;DHT22;33568;45.286;9.900;2023-08-07T09:20:37;28.60;40.90
47805;DHT22;33568;45.286;9.900;2023-08-07T09:23:07;28.70;41.70
47805;DHT22;33568;45.286;9.900;2023-08-07T09:25:34;28.90;41.80
47805;DHT22;33568;45.286;9.900;2023-08-07T09:28:02;29.10;40.90
47805;DHT22;33568;45.286;9.900;2023-08-07T09:30:31;29.30;40.80
47805;DHT22;33568;45.286;9.900;2023-08-07T09:32:58;29.40;40.00
47805;DHT22;33568;45.286;9.900;2023-08-07T09:35:25;29.40;39.30
47805;DHT22;33568;45.286;9.900;2023-08-07T09:37:52;29.50;39.30
47805;DHT22;33568;45.286;9.900;2023-08-07T09:40:18;29.40;38.60
47805;DHT22;33568;45.286;9.900;2023-08-07T09:42:50;29.40;38.00
47805;DHT22;33568;45.286;9.900;2023-08-07T09:45:22;29.40;37.70
47805;DHT22;33568;45.286;9.900;2023-08-07T09:48:05;29.40;38.30
47805;DHT22;33568;45.286;9.900;2023-08-07T09:50:32;29.40;36.80
47805;DHT22;33568;45.286;9.900;2023-08-07T09:52:59;29.50;38.20
47805;DHT22;33568;45.286;9.900;2023-08-07T09:55:26;29.60;37.70
47805;DHT22;33568;45.286;9.900;2023-08-07T09:57:53;29.70;37.20
47805;DHT22;33568;45.286;9.900;2023-08-07T10:00:20;29.70;37.40
47805;DHT22;33568;45.286;9.900;2023-08-07T10:02:49;29.90;38.40
47805;DHT22;33568;45.286;9.900;2023-08-07T10:05:15;30.10;38.60
47805;DHT22;33568;45.286;9.900;2023-08-07T10:07:43;30.40;38.00
47805;DHT22;33568;45.286;9.900;2023-08-07T10:10:10;30.40;37.30
47805;DHT22;33568;45.286;9.900;2023-08-07T10:12:37;30.50;37.10
47805;DHT22;33568;45.286;9.900;2023-08-07T10:15:05;30.30;36.50
47805;DHT22;33568;45.286;9.900;2023-08-07T10:17:32;30.30;36.40
47805;DHT22;33568;45.286;9.900;2023-08-07T10:19:59;30.40;36.80
47805;DHT22;33568;45.286;9.900;2023-08-07T10:22:27;30.40;36.70
47805;DHT22;33568;45.286;9.900;2023-08-07T10:24:57;30.40;36.40
47805;DHT22;33568;45.286;9.900;2023-08-07T10:27:26;30.40;36.10
47805;DHT22;33568;45.286;9.900;2023-08-07T10:29:54;30.50;36.50
47805;DHT22;33568;45.286;9.900;2023-08-07T10:32:25;30.60;36.60
47805;DHT22;33568;45.286;9.900;2023-08-07T10:34:53;30.60;36.30
47805;DHT22;33568;45.286;9.900;2023-08-07T10:37:39;30.60;36.10
47805;DHT22;33568;45.286;9.900;2023-08-07T10:40:26;30.60;34.90
47805;DHT22;33568;45.286;9.900;2023-08-07T10:43:17;30.60;35.90
47805;DHT22;33568;45.286;9.900;2023-08-07T10:45:43;30.70;35.60
47805;DHT22;33568;45.286;9.900;2023-08-07T10:48:17;30.80;35.60
47805;DHT22;33568;45.286;9.900;2023-08-07T10:51:03;31.10;34.90
47805;DHT22;33568;45.286;9.900;2023-08-07T10:53:32;31.20;34.10
47805;DHT22;33568;45.286;9.900;2023-08-07T10:56:04;31.30;35.40
47805;DHT22;33568;45.286;9.900;2023-08-07T10:58:35;31.40;35.00
47805;DHT22;33568;45.286;9.900;2023-08-07T11:01:27;31.60;34.60
47805;DHT22;33568;45.286;9.900;2023-08-07T11:04:12;31.20;32.70
47805;DHT22;33568;45.286;9.900;2023-08-07T11:06:40;31.10;33.80
47805;DHT22;33568;45.286;9.900;2023-08-07T11:09:09;31.30;34.40
47805;DHT22;33568;45.286;9.900;2023-08-07T11:11:40;31.30;33.90
47805;DHT22;33568;45.286;9.900;2023-08-07T11:14:08;31.20;33.40
47805;DHT22;33568;45.286;9.900;2023-08-07T11:16:35;31.10;33.80
47805;DHT22;33568;45.286;9.900;2023-08-07T11:19:02;31.00;33.70
47805;DHT22;33568;45.286;9.900;2023-08-07T11:21:31;30.90;33.80
47805;DHT22;33568;45.286;9.900;2023-08-07T11:23:57;31.00;33.20
47805;DHT22;33568;45.286;9.900;2023-08-07T11:26:24;31.10;33.90
47805;DHT22;33568;45.286;9.900;2023-08-07T11:28:52;31.10;33.70
47805;DHT22;33568;45.286;9.900;2023-08-07T11:31:18;31.30;33.90
47805;DHT22;33568;45.286;9.900;2023-08-07T11:33:45;31.50;33.80
47805;DHT22;33568;45.286;9.900;2023-08-07T11:36:13;31.80;34.20
47805;DHT22;33568;45.286;9.900;2023-08-07T11:38:41;31.90;34.50
47805;DHT22;33568;45.286;9.900;2023-08-07T11:41:12;31.80;34.10
47805;DHT22;33568;45.286;9.900;2023-08-07T11:43:40;31.50;33.60
47805;DHT22;33568;45.286;9.900;2023-08-07T11:46:08;31.50;33.30
47805;DHT22;33568;45.286;9.900;2023-08-07T11:48:36;31.60;33.40
47805;DHT22;33568;45.286;9.900;2023-08-07T11:51:04;31.80;33.80
47805;DHT22;33568;45.286;9.900;2023-08-07T11:53:38;31.90;34.10
47805;DHT22;33568;45.286;9.900;2023-08-07T11:56:09;32.00;34.10
47805;DHT22;33568;45.286;9.900;2023-08-07T11:58:38;32.20;33.50
47805;DHT22;33568;45.286;9.900;2023-08-07T12:01:09;32.30;33.40
47805;DHT22;33568;45.286;9.900;2023-08-07T12:03:38;32.50;34.00
47805;DHT22;33568;45.286;9.900;2023-08-07T12:06:06;32.70;34.10
47805;DHT22;33568;45.286;9.900;2023-08-07T12:08:40;33.00;34.00
47805;DHT22;33568;45.286;9.900;2023-08-07T12:11:09;33.00;33.00
47805;DHT22;33568;45.286;9.900;2023-08-07T12:13:42;32.80;33.80
47805;DHT22;33568;45.286;9.900;2023-08-07T12:16:09;32.40;32.70
47805;DHT22;33568;45.286;9.900;2023-08-07T12:18:37;32.30;33.40
47805;DHT22;33568;45.286;9.900;2023-08-07T12:21:06;32.20;33.50
47805;DHT22;33568;45.286;9.900;2023-08-07T12:23:34;32.30;32.70
47805;DHT22;33568;45.286;9.900;2023-08-07T12:26:01;32.40;32.80
47805;DHT22;33568;45.286;9.900;2023-08-07T12:28:27;32.50;33.40
47805;DHT22;33568;45.286;9.900;2023-08-07T12:30:54;32.50;33.30
47805;DHT22;33568;45.286;9.900;2023-08-07T12:33:20;32.40;33.30
47805;DHT22;33568;45.286;9.900;2023-08-07T12:35:47;32.30;33.00
47805;DHT22;33568;45.286;9.900;2023-08-07T12:38:13;32.30;33.10
47805;DHT22;33568;45.286;9.900;2023-08-07T12:40:41;32.30;33.30
47805;DHT22;33568;45.286;9.900;2023-08-07T12:43:07;32.50;32.70
47805;DHT22;33568;45.286;9.900;2023-08-07T12:45:34;32.60;32.50
47805;DHT22;33568;45.286;9.900;2023-08-07T12:48:04;32.60;32.50
47805;DHT22;33568;45.286;9.900;2023-08-07T12:50:30;32.30;32.80
47805;DHT22;33568;45.286;9.900;2023-08-07T12:52:57;32.30;34.10
47805;DHT22;33568;45.286;9.900;2023-08-07T12:55:25;32.30;33.80
47805;DHT22;33568;45.286;9.900;2023-08-07T12:57:53;32.30;34.40
47805;DHT22;33568;45.286;9.900;2023-08-07T13:00:19;32.30;32.90
47805;DHT22;33568;45.286;9.900;2023-08-07T13:02:47;32.10;33.30
47805;DHT22;33568;45.286;9.900;2023-08-07T13:05:15;32.10;32.90
47805;DHT22;33568;45.286;9.900;2023-08-07T13:07:43;32.00;32.80
47805;DHT22;33568;45.286;9.900;2023-08-07T13:10:11;32.20;32.50
47805;DHT22;33568;45.286;9.900;2023-08-07T13:12:39;32.40;31.90
47805;DHT22;33568;45.286;9.900;2023-08-07T13:15:07;32.50;31.70
47805;DHT22;33568;45.286;9.900;2023-08-07T13:17:35;32.70;32.00
47805;DHT22;33568;45.286;9.900;2023-08-07T13:20:03;32.50;31.70
47805;DHT22;33568;45.286;9.900;2023-08-07T13:22:41;32.50;31.90
47805;DHT22;33568;45.286;9.900;2023-08-07T13:25:11;32.30;32.40
47805;DHT22;33568;45.286;9.900;2023-08-07T13:27:38;32.20;32.60
47805;DHT22;33568;45.286;9.900;2023-08-07T13:30:06;32.20;32.50
47805;DHT22;33568;45.286;9.900;2023-08-07T13:32:33;32.20;32.40
47805;DHT22;33568;45.286;9.900;2023-08-07T13:34:59;32.20;31.90
47805;DHT22;33568;45.286;9.900;2023-08-07T13:37:26;32.20;31.90
47805;DHT22;33568;45.286;9.900;2023-08-07T13:39:52;32.30;32.30
47805;DHT22;33568;45.286;9.900;2023-08-07T13:42:20;32.30;32.60
47805;DHT22;33568;45.286;9.900;2023-08-07T13:44:46;32.30;32.60
47805;DHT22;33568;45.286;9.900;2023-08-07T13:47:13;32.40;32.90
47805;DHT22;33568;45.286;9.900;2023-08-07T13:49:40;32.50;33.20
47805;DHT22;33568;45.286;9.900;2023-08-07T13:52:07;32.60;32.80
47805;DHT22;33568;45.286;9.900;2023-08-07T13:54:33;32.80;33.20
47805;DHT22;33568;45.286;9.900;2023-08-07T13:57:00;32.90;33.30
47805;DHT22;33568;45.286;9.900;2023-08-07T13:59:26;32.70;32.70
47805;DHT22;33568;45.286;9.900;2023-08-07T14:01:53;32.50;32.20
47805;DHT22;33568;45.286;9.900;2023-08-07T14:04:20;32.50;32.30
47805;DHT22;33568;45.286;9.900;2023-08-07T14:06:47;32.60;33.00
47805;DHT22;33568;45.286;9.900;2023-08-07T14:09:13;32.60;33.00
47805;DHT22;33568;45.286;9.900;2023-08-07T14:11:40;32.50;32.90
47805;DHT22;33568;45.286;9.900;2023-08-07T14:14:06;32.50;33.20
47805;DHT22;33568;45.286;9.900;2023-08-07T14:16:33;32.60;33.00
47805;DHT22;33568;45.286;9.900;2023-08-07T14:18:59;32.80;32.60
47805;DHT22;33568;45.286;9.900;2023-08-07T14:21:26;32.70;31.90
47805;DHT22;33568;45.286;9.900;2023-08-07T14:23:52;32.70;31.70
47805;DHT22;33568;45.286;9.900;2023-08-07T14:26:19;32.80;31.80
47805;DHT22;33568;45.286;9.900;2023-08-07T14:28:47;32.90;31.70
47805;DHT22;33568;45.286;9.900;2023-08-07T14:31:14;33.00;31.90
47805;DHT22;33568;45.286;9.900;2023-08-07T14:33:40;33.10;32.20
47805;DHT22;33568;45.286;9.900;2023-08-07T14:36:07;33.10;32.30
47805;DHT22;33568;45.286;9.900;2023-08-07T14:38:33;33.10;32.30
47805;DHT22;33568;45.286;9.900;2023-08-07T14:41:00;33.10;31.90
47805;DHT22;33568;45.286;9.900;2023-08-07T14:43:29;33.10;32.00
47805;DHT22;33568;45.286;9.900;2023-08-07T14:45:57;33.10;31.70
47805;DHT22;33568;45.286;9.900;2023-08-07T14:48:24;33.00;31.90
47805;DHT22;33568;45.286;9.900;2023-08-07T14:50:50;33.00;32.10
47805;DHT22;33568;45.286;9.900;2023-08-07T14:53:17;33.10;32.00
47805;DHT22;33568;45.286;9.900;2023-08-07T14:55:44;33.30;32.50
47805;DHT22;33568;45.286;9.900;2023-08-07T14:58:11;33.40;32.30
47805;DHT22;33568;45.286;9.900;2023-08-07T15:00:38;33.40;32.00
47805;DHT22;33568;45.286;9.900;2023-08-07T15:03:04;33.20;32.20
47805;DHT22;33568;45.286;9.900;2023-08-07T15:05:30;33.20;32.60
47805;DHT22;33568;45.286;9.900;2023-08-07T15:07:57;33.10;32.40
47805;DHT22;33568;45.286;9.900;2023-08-07T15:10:23;33.10;32.40
47805;DHT22;33568;45.286;9.900;2023-08-07T15:12:50;33.20;32.60
47805;DHT22;33568;45.286;9.900;2023-08-07T15:15:16;33.30;32.40
47805;DHT22;33568;45.286;9.900;2023-08-07T15:17:43;33.30;32.30
47805;DHT22;33568;45.286;9.900;2023-08-07T15:20:10;33.10;31.80
47805;DHT22;33568;45.286;9.900;2023-08-07T15:22:36;33.20;32.50
47805;DHT22;33568;45.286;9.900;2023-08-07T15:25:03;33.30;32.70
47805;DHT22;33568;45.286;9.900;2023-08-07T15:27:32;33.30;32.50
47805;DHT22;33568;45.286;9.900;2023-08-07T15:29:58;33.20;32.20
47805;DHT22;33568;45.286;9.900;2023-08-07T15:32:25;33.10;32.00
47805;DHT22;33568;45.286;9.900;2023-08-07T15:34:51;33.00;32.00
47805;DHT22;33568;45.286;9.900;2023-08-07T15:37:19;33.00;32.50